Time;durP1;ratioP1;P1;durP2;ratioP2;P2;SDS_P1;SDS_P2;PMS_P1;PMS_P2;Temp;Humidity;BMP_temperature;BMP_pressure;BME280_temperature;BME280_humidity;BME280_pressure;Samples;Min_cycle;Max_cycle;Signal;HPM_P1;HPM_P2
2021/08/23 00:00:07;;;;;;;19.98;9.43;;;24.70;50.80;;;;;;5067542;28;20021;-53
2021/08/23 00:02:33;;;;;;;17.38;8.05;;;24.70;50.90;;;;;;5056199;28;20515;-53
2021/08/23 00:05:01;;;;;;;15.18;7.97;;;24.70;51.00;;;;;;5068386;28;20017;-53
2021/08/23 00:07:27;;;;;;;18.73;7.47;;;24.70;51.20;;;;;;5062388;28;20017;-53
2021/08/23 00:09:54;;;;;;;18.92;7.10;;;24.60;51.00;;;;;;5062877;28;20464;-52
2021/08/23 00:12:21;;;;;;;17.20;7.35;;;24.60;50.80;;;;;;5052077;28;20017;-52
2021/08/23 00:14:48;;;;;;;19.88;7.53;;;24.60;51.20;;;;;;5060952;28;20032;-53
2021/08/23 00:17:14;;;;;;;11.73;7.35;;;24.50;51.30;;;;;;5064297;28;20048;-55
2021/08/23 00:19:41;;;;;;;12.85;6.25;;;24.50;51.60;;;;;;5071161;28;20093;-53
2021/08/23 00:22:20;;;;;;;22.67;7.32;;;24.50;51.40;;;;;;5070939;28;20071;-53
2021/08/23 00:24:50;;;;;;;15.88;6.70;;;24.50;51.40;;;;;;5069734;28;20024;-54
2021/08/23 00:27:18;;;;;;;15.60;6.65;;;24.40;51.50;;;;;;5060480;28;20028;-53
2021/08/23 00:29:46;;;;;;;18.40;6.47;;;24.40;52.20;;;;;;5072429;28;20082;-53
2021/08/23 00:32:13;;;;;;;17.75;6.82;;;24.40;51.90;;;;;;5059457;28;20064;-53
2021/08/23 00:34:39;;;;;;;14.95;5.82;;;24.30;51.70;;;;;;5074044;28;20032;-53
2021/08/23 00:37:06;;;;;;;12.70;6.30;;;24.30;51.90;;;;;;5060267;28;20016;-54
2021/08/23 00:39:35;;;;;;;16.73;6.40;;;24.30;52.00;;;;;;5067010;28;20025;-54
2021/08/23 00:42:03;;;;;;;11.88;6.13;;;24.30;52.10;;;;;;5063059;28;20029;-53
2021/08/23 00:44:31;;;;;;;13.80;5.82;;;24.30;52.40;;;;;;5059797;28;20495;-54
2021/08/23 00:47:02;;;;;;;13.45;6.20;;;24.30;52.40;;;;;;5068606;28;20017;-52
2021/08/23 00:49:32;;;;;;;13.63;6.32;;;24.20;52.20;;;;;;5066318;28;20020;-53
2021/08/23 00:51:59;;;;;;;12.90;6.10;;;24.20;52.30;;;;;;5061933;28;20019;-53
2021/08/23 00:54:26;;;;;;;13.05;5.40;;;24.20;52.20;;;;;;5064038;28;20111;-52
2021/08/23 00:56:54;;;;;;;12.52;5.82;;;24.20;52.20;;;;;;5064458;28;20025;-53
2021/08/23 00:59:25;;;;;;;13.85;6.15;;;24.20;52.20;;;;;;5071829;28;20016;-53
2021/08/23 01:02:00;;;;;;;12.27;5.93;;;24.20;52.20;;;;;;5060122;28;20090;-54
2021/08/23 01:04:57;;;;;;;15.88;6.65;;;24.20;52.30;;;;;;5069780;28;20024;-54
2021/08/23 01:07:26;;;;;;;16.17;6.97;;;24.20;52.40;;;;;;5060216;28;20033;-53
2021/08/23 01:10:01;;;;;;;14.57;6.18;;;24.20;52.30;;;;;;5073038;28;20095;-54
2021/08/23 01:12:29;;;;;;;14.50;7.03;;;24.20;52.20;;;;;;5060909;28;20100;-54
2021/08/23 01:14:56;;;;;;;16.92;6.63;;;24.10;52.30;;;;;;5067765;28;20027;-55
2021/08/23 01:17:22;;;;;;;18.33;6.80;;;24.10;52.40;;;;;;5060501;28;20025;-53
2021/08/23 01:19:56;;;;;;;20.00;6.10;;;24.10;52.60;;;;;;5072555;28;20058;-54
2021/08/23 01:22:25;;;;;;;18.38;6.50;;;24.10;52.60;;;;;;5062097;28;20022;-54
2021/08/23 01:24:55;;;;;;;18.20;6.60;;;24.10;52.30;;;;;;5066312;28;20025;-53
2021/08/23 01:27:25;;;;;;;16.25;6.72;;;24.10;52.60;;;;;;5060350;28;20023;-53
2021/08/23 01:29:56;;;;;;;33.20;7.80;;;24.10;52.70;;;;;;5050755;28;20408;-52
2021/08/23 01:32:26;;;;;;;23.90;7.18;;;24.10;53.00;;;;;;5049707;28;20029;-53
2021/08/23 01:34:53;;;;;;;16.88;6.75;;;24.10;52.90;;;;;;5054143;28;20021;-53
2021/08/23 01:37:21;;;;;;;17.45;7.07;;;24.10;52.90;;;;;;5056337;28;20104;-53
2021/08/23 01:39:48;;;;;;;16.30;6.78;;;24.10;52.90;;;;;;5055946;28;20036;-52
2021/08/23 01:42:15;;;;;;;17.65;7.18;;;24.10;52.90;;;;;;5055719;28;20021;-52
2021/08/23 01:44:44;;;;;;;21.08;7.28;;;24.10;52.90;;;;;;5056505;28;20028;-53
2021/08/23 01:47:11;;;;;;;20.08;6.60;;;24.10;52.90;;;;;;5044062;28;20044;-53
2021/08/23 01:49:38;;;;;;;16.77;6.30;;;24.10;52.80;;;;;;5036190;28;20363;-52
2021/08/23 01:52:06;;;;;;;18.83;7.03;;;24.10;52.90;;;;;;5036161;28;20021;-52
2021/08/23 01:54:33;;;;;;;21.45;6.25;;;24.00;52.70;;;;;;5040779;28;20029;-52
2021/08/23 01:56:59;;;;;;;15.55;6.28;;;24.00;52.80;;;;;;5056055;28;20020;-52
2021/08/23 01:59:26;;;;;;;14.52;6.53;;;24.00;52.70;;;;;;5055285;28;20017;-52
2021/08/23 02:01:52;;;;;;;15.45;6.38;;;24.00;52.60;;;;;;5055116;28;20028;-53
2021/08/23 02:04:19;;;;;;;13.23;6.35;;;23.90;52.60;;;;;;5053509;28;20108;-54
2021/08/23 02:06:46;;;;;;;12.55;6.53;;;24.00;52.70;;;;;;5053694;28;20025;-53
2021/08/23 02:09:13;;;;;;;14.82;7.22;;;23.90;52.70;;;;;;5054737;28;20027;-52
2021/08/23 02:11:40;;;;;;;15.48;6.72;;;23.90;52.60;;;;;;5055488;28;20021;-53
2021/08/23 02:14:06;;;;;;;15.85;6.53;;;23.80;52.80;;;;;;5055055;28;20108;-52
2021/08/23 02:16:33;;;;;;;13.10;6.35;;;23.80;52.70;;;;;;5055748;28;20103;-52
2021/08/23 02:18:59;;;;;;;16.27;6.82;;;23.80;52.90;;;;;;5055517;28;20484;-53
2021/08/23 02:21:26;;;;;;;13.68;6.30;;;23.80;52.90;;;;;;5055689;28;20108;-53
2021/08/23 02:23:52;;;;;;;11.75;6.65;;;23.70;52.90;;;;;;5055808;28;20025;-53
2021/08/23 02:26:20;;;;;;;14.85;6.82;;;23.70;52.80;;;;;;5055761;28;20021;-53
2021/08/23 02:28:46;;;;;;;12.10;6.00;;;23.70;52.80;;;;;;5054675;28;20042;-53
2021/08/23 02:31:13;;;;;;;13.52;6.90;;;23.60;52.80;;;;;;5055091;28;20365;-52
2021/08/23 02:33:40;;;;;;;14.40;6.10;;;23.70;53.00;;;;;;5055356;28;20017;-52
2021/08/23 02:36:06;;;;;;;13.27;6.32;;;23.60;53.20;;;;;;5055527;28;20024;-52
2021/08/23 02:38:33;;;;;;;13.40;6.53;;;23.60;53.90;;;;;;5054957;28;20036;-53
2021/08/23 02:40:59;;;;;;;15.25;7.07;;;23.50;53.20;;;;;;5055107;28;20029;-53
2021/08/23 02:43:26;;;;;;;12.20;6.43;;;23.50;53.20;;;;;;5054864;28;20070;-52
2021/08/23 02:45:52;;;;;;;16.30;6.65;;;23.50;53.30;;;;;;5055093;28;20025;-53
2021/08/23 02:48:19;;;;;;;12.30;6.50;;;23.50;53.30;;;;;;5055081;28;20099;-52
2021/08/23 02:50:46;;;;;;;14.15;7.00;;;23.40;53.30;;;;;;5054995;28;20021;-52
2021/08/23 02:53:15;;;;;;;13.88;6.85;;;23.40;53.30;;;;;;5054525;28;20523;-52
2021/08/23 02:55:42;;;;;;;14.13;6.72;;;23.40;53.50;;;;;;5054179;28;20017;-53
2021/08/23 02:58:09;;;;;;;16.13;7.22;;;23.30;53.50;;;;;;5054862;28;20453;-52
2021/08/23 03:00:35;;;;;;;16.83;7.68;;;23.30;53.50;;;;;;5054198;28;20037;-53
2021/08/23 03:03:02;;;;;;;14.35;7.30;;;23.30;53.40;;;;;;5054220;28;20115;-52
2021/08/23 03:05:28;;;;;;;15.60;7.68;;;23.20;53.50;;;;;;5067183;28;20017;-54
2021/08/23 03:07:55;;;;;;;21.27;7.35;;;23.30;53.60;;;;;;5060360;28;20023;-54
2021/08/23 03:10:22;;;;;;;15.32;8.35;;;23.20;53.60;;;;;;5057949;28;20017;-53
2021/08/23 03:12:49;;;;;;;21.65;8.10;;;23.20;53.60;;;;;;5061647;28;20016;-53
2021/08/23 03:15:15;;;;;;;18.77;8.85;;;23.20;53.50;;;;;;5052499;28;20049;-52
2021/08/23 03:17:42;;;;;;;13.88;7.75;;;23.10;53.50;;;;;;5054033;28;20108;-53
2021/08/23 03:20:09;;;;;;;16.65;8.80;;;23.10;53.50;;;;;;5054025;28;20072;-52
2021/08/23 03:22:35;;;;;;;16.67;7.53;;;23.10;53.70;;;;;;5054332;28;20025;-52
2021/08/23 03:25:02;;;;;;;14.65;7.72;;;23.10;53.70;;;;;;5055551;28;20033;-53
2021/08/23 03:27:28;;;;;;;19.38;8.82;;;23.00;53.60;;;;;;5054110;28;20017;-54
2021/08/23 03:29:55;;;;;;;17.13;8.25;;;23.00;53.50;;;;;;5056327;28;20040;-53
2021/08/23 03:32:22;;;;;;;15.18;8.77;;;22.90;53.40;;;;;;5057375;28;20017;-52
2021/08/23 03:34:48;;;;;;;13.65;8.18;;;22.90;53.50;;;;;;5058259;28;20021;-53
2021/08/23 03:37:15;;;;;;;19.05;8.73;;;22.90;53.60;;;;;;5053964;28;20029;-52
2021/08/23 03:39:42;;;;;;;18.70;8.38;;;22.90;53.70;;;;;;5065149;28;20032;-53
2021/08/23 03:42:08;;;;;;;16.23;8.93;;;22.90;53.70;;;;;;5057368;28;20028;-52
2021/08/23 03:44:35;;;;;;;19.70;9.35;;;22.90;53.60;;;;;;5056322;28;20431;-54
2021/08/23 03:47:02;;;;;;;17.63;8.65;;;22.80;53.60;;;;;;5050872;28;20025;-52
2021/08/23 03:49:28;;;;;;;19.98;9.60;;;22.80;53.80;;;;;;5065789;28;20402;-52
2021/08/23 03:51:55;;;;;;;15.73;8.10;;;22.70;53.80;;;;;;5055967;28;20022;-52
2021/08/23 03:54:21;;;;;;;16.13;8.73;;;22.70;53.80;;;;;;5053649;28;20045;-52
2021/08/23 03:56:48;;;;;;;15.65;8.52;;;22.70;53.90;;;;;;5053466;28;20071;-53
2021/08/23 03:59:14;;;;;;;16.42;8.85;;;22.70;53.90;;;;;;5053632;28;20017;-52
2021/08/23 04:01:41;;;;;;;18.15;9.20;;;22.70;54.60;;;;;;5047773;28;20407;-52
2021/08/23 04:04:07;;;;;;;18.02;8.80;;;22.70;53.90;;;;;;5053295;28;20074;-52
2021/08/23 04:06:34;;;;;;;19.15;9.43;;;22.60;53.80;;;;;;5053644;28;20442;-52
2021/08/23 04:09:01;;;;;;;16.42;9.25;;;22.60;53.80;;;;;;5053139;28;20036;-53
2021/08/23 04:11:27;;;;;;;15.77;8.45;;;22.60;53.90;;;;;;5053562;28;20029;-52
2021/08/23 04:13:54;;;;;;;16.27;8.15;;;22.50;53.80;;;;;;5053090;28;20021;-53
2021/08/23 04:16:20;;;;;;;18.85;9.23;;;22.50;53.90;;;;;;5053418;28;20041;-52
2021/08/23 04:18:47;;;;;;;16.75;9.43;;;22.40;54.00;;;;;;5053250;28;20100;-53
2021/08/23 04:21:14;;;;;;;15.45;8.73;;;22.50;53.90;;;;;;5052918;28;20032;-52
2021/08/23 04:23:40;;;;;;;16.88;8.80;;;22.40;54.10;;;;;;5053054;28;20029;-53
2021/08/23 04:26:07;;;;;;;13.88;8.13;;;22.40;54.10;;;;;;5053427;28;20021;-52
2021/08/23 04:28:33;;;;;;;15.57;8.40;;;22.30;54.00;;;;;;5054124;28;20025;-53
2021/08/23 04:31:00;;;;;;;15.77;8.60;;;22.40;54.00;;;;;;5052827;28;20104;-52
2021/08/23 04:33:27;;;;;;;16.00;8.45;;;22.30;54.40;;;;;;5052312;28;20087;-53
2021/08/23 04:35:54;;;;;;;19.67;9.35;;;22.30;54.60;;;;;;5051160;28;20025;-53
2021/08/23 04:38:20;;;;;;;17.92;8.20;;;22.30;54.60;;;;;;5044551;28;20017;-53
2021/08/23 04:40:47;;;;;;;13.82;7.43;;;22.20;54.60;;;;;;5038182;28;20041;-53
2021/08/23 04:43:13;;;;;;;18.35;8.38;;;22.20;54.70;;;;;;5045386;28;20441;-53
2021/08/23 04:45:40;;;;;;;19.30;8.45;;;22.20;54.70;;;;;;5052751;28;20021;-54
2021/08/23 04:48:07;;;;;;;14.52;8.18;;;22.10;54.70;;;;;;5052763;28;20408;-53
2021/08/23 04:50:33;;;;;;;14.77;7.90;;;22.10;54.80;;;;;;5052963;28;20025;-53
2021/08/23 04:53:00;;;;;;;21.48;8.65;;;22.10;54.80;;;;;;5052877;28;20103;-54
2021/08/23 04:55:26;;;;;;;18.52;8.55;;;22.10;54.70;;;;;;5052778;28;20025;-53
2021/08/23 04:57:54;;;;;;;16.23;8.07;;;22.10;54.70;;;;;;5053452;28;20032;-53
2021/08/23 05:00:20;;;;;;;13.52;7.65;;;22.10;54.70;;;;;;5051862;28;20436;-53
2021/08/23 05:02:47;;;;;;;12.60;8.40;;;22.00;54.70;;;;;;5052353;28;20021;-52
2021/08/23 05:05:13;;;;;;;17.48;8.38;;;22.00;54.70;;;;;;5052176;28;20428;-54
2021/08/23 05:07:40;;;;;;;16.90;8.05;;;22.00;54.80;;;;;;5052944;28;20413;-51
2021/08/23 05:10:07;;;;;;;12.45;7.50;;;21.90;54.70;;;;;;5046197;28;20017;-53
2021/08/23 05:12:33;;;;;;;15.85;7.82;;;21.90;54.80;;;;;;5054442;28;20029;-53
2021/08/23 05:15:00;;;;;;;16.30;7.93;;;21.90;54.70;;;;;;5049349;28;20025;-54
2021/08/23 05:17:26;;;;;;;19.50;8.25;;;21.80;54.80;;;;;;5052106;28;20021;-54
2021/08/23 05:19:54;;;;;;;16.67;8.27;;;21.80;55.00;;;;;;5056657;28;20461;-53
2021/08/23 05:22:21;;;;;;;14.63;7.60;;;21.80;55.10;;;;;;5055617;28;20024;-53
2021/08/23 05:24:48;;;;;;;18.25;7.75;;;21.80;55.00;;;;;;5058234;28;20141;-53
2021/08/23 05:27:14;;;;;;;14.90;7.53;;;21.80;54.90;;;;;;5055335;28;20484;-53
2021/08/23 05:29:43;;;;;;;16.45;7.85;;;21.70;54.80;;;;;;5057966;28;20099;-54
2021/08/23 05:32:10;;;;;;;16.50;7.45;;;21.70;54.80;;;;;;5054587;28;20477;-53
2021/08/23 05:34:36;;;;;;;16.55;7.90;;;21.70;55.00;;;;;;5056224;28;20020;-53
2021/08/23 05:37:03;;;;;;;13.40;7.38;;;21.60;54.90;;;;;;5055769;28;20068;-53
2021/08/23 05:39:30;;;;;;;12.82;7.13;;;21.60;54.90;;;;;;5056169;28;20021;-53
2021/08/23 05:41:56;;;;;;;15.63;7.70;;;21.60;55.00;;;;;;5056091;28;20028;-54
2021/08/23 05:44:23;;;;;;;14.57;7.47;;;21.60;54.90;;;;;;5055120;28;20017;-53
2021/08/23 05:46:49;;;;;;;15.30;7.10;;;21.50;54.80;;;;;;5038473;28;20021;-54
2021/08/23 05:49:16;;;;;;;13.65;7.97;;;21.50;54.90;;;;;;5037123;28;20096;-53
2021/08/23 05:51:43;;;;;;;11.80;7.00;;;21.50;54.90;;;;;;5055193;28;20025;-53
2021/08/23 05:54:10;;;;;;;12.65;6.78;;;21.50;55.60;;;;;;5056096;28;20387;-53
2021/08/23 05:56:40;;;;;;;12.52;6.63;;;21.40;54.80;;;;;;5056141;28;20040;-53
2021/08/23 05:59:09;;;;;;;13.63;6.38;;;21.40;54.90;;;;;;5056642;28;20013;-53
2021/08/23 06:01:36;;;;;;;13.02;6.45;;;21.40;54.90;;;;;;5054961;28;20123;-53
2021/08/23 06:04:02;;;;;;;11.80;7.13;;;21.40;54.90;;;;;;5055701;28;20083;-53
2021/08/23 06:06:29;;;;;;;11.40;6.47;;;21.30;55.00;;;;;;5055311;28;20163;-53
2021/08/23 06:08:55;;;;;;;13.35;6.85;;;21.30;55.00;;;;;;5055257;28;20029;-53
2021/08/23 06:11:22;;;;;;;14.07;6.78;;;21.30;55.00;;;;;;5055641;28;20021;-54
2021/08/23 06:13:48;;;;;;;11.45;6.88;;;21.20;55.10;;;;;;5055592;28;20450;-54
2021/08/23 06:16:15;;;;;;;10.02;6.45;;;21.20;55.10;;;;;;5055367;28;20041;-53
2021/08/23 06:18:42;;;;;;;11.63;6.47;;;21.20;55.10;;;;;;5055213;28;20346;-53
2021/08/23 06:21:11;;;;;;;14.25;6.53;;;21.10;55.20;;;;;;5055276;28;20040;-55
2021/08/23 06:23:38;;;;;;;11.80;6.45;;;21.10;55.20;;;;;;5055580;28;20024;-53
2021/08/23 06:26:04;;;;;;;9.63;6.38;;;21.10;55.30;;;;;;5055505;28;20025;-54
2021/08/23 06:28:31;;;;;;;12.88;6.65;;;21.10;55.30;;;;;;5054929;28;20464;-53
2021/08/23 06:30:57;;;;;;;11.20;6.35;;;21.10;55.30;;;;;;5054092;28;20025;-53
2021/08/23 06:33:24;;;;;;;10.98;6.68;;;21.00;55.30;;;;;;5054729;28;20419;-53
2021/08/23 06:35:50;;;;;;;13.95;6.95;;;21.00;55.30;;;;;;5054706;28;20450;-53
2021/08/23 06:38:17;;;;;;;11.75;6.22;;;21.00;55.40;;;;;;5055278;28;20092;-52
2021/08/23 06:40:43;;;;;;;15.57;7.30;;;20.90;55.40;;;;;;5054966;28;20025;-53
2021/08/23 06:43:10;;;;;;;11.38;6.88;;;20.90;55.40;;;;;;5054475;28;20021;-53
2021/08/23 06:45:36;;;;;;;12.98;6.95;;;20.90;55.50;;;;;;5054286;28;20066;-52
2021/08/23 06:48:03;;;;;;;12.68;7.70;;;20.90;56.20;;;;;;5055126;28;20021;-52
2021/08/23 06:50:29;;;;;;;16.08;7.97;;;20.80;55.50;;;;;;5053406;28;20036;-53
2021/08/23 06:52:57;;;;;;;11.60;6.43;;;20.80;55.60;;;;;;5054356;28;20013;-52
2021/08/23 06:55:23;;;;;;;12.88;7.47;;;20.80;55.60;;;;;;5054668;28;20025;-52
2021/08/23 06:57:50;;;;;;;13.57;7.70;;;20.80;55.70;;;;;;5054805;28;20106;-54
2021/08/23 07:00:17;;;;;;;12.73;7.30;;;20.80;55.70;;;;;;5054045;28;20419;-52
2021/08/23 07:02:43;;;;;;;15.88;7.78;;;20.80;55.80;;;;;;5053408;28;20025;-53
2021/08/23 07:05:10;;;;;;;13.63;7.57;;;20.70;55.70;;;;;;5054146;28;20033;-54
2021/08/23 07:07:37;;;;;;;15.65;8.13;;;20.70;55.70;;;;;;5053744;28;20029;-53
2021/08/23 07:10:04;;;;;;;13.13;8.05;;;20.70;55.80;;;;;;5054179;28;20471;-53
2021/08/23 07:12:30;;;;;;;15.65;8.18;;;20.70;56.00;;;;;;5054268;28;20428;-53
2021/08/23 07:14:57;;;;;;;13.52;8.10;;;20.60;55.90;;;;;;5053321;28;20087;-52
2021/08/23 07:17:23;;;;;;;15.00;8.43;;;20.60;55.90;;;;;;5053938;28;20377;-52
2021/08/23 07:19:50;;;;;;;15.70;8.90;;;20.60;56.00;;;;;;5054080;28;20029;-53
2021/08/23 07:22:19;;;;;;;13.52;8.40;;;20.60;56.00;;;;;;5053833;28;20032;-53
2021/08/23 07:24:47;;;;;;;14.20;9.02;;;20.60;56.00;;;;;;5054407;28;20059;-52
2021/08/23 07:27:14;;;;;;;15.32;8.73;;;20.50;56.00;;;;;;5053563;28;20024;-52
2021/08/23 07:29:41;;;;;;;18.52;10.20;;;20.50;56.00;;;;;;5054136;28;20025;-54
2021/08/23 07:32:08;;;;;;;19.08;9.25;;;20.50;56.10;;;;;;5053701;28;20104;-53
2021/08/23 07:34:35;;;;;;;15.63;9.65;;;20.50;56.20;;;;;;5054080;28;20020;-52
2021/08/23 07:37:01;;;;;;;15.18;8.82;;;20.40;56.90;;;;;;5053570;28;20128;-53
2021/08/23 07:39:28;;;;;;;15.90;9.32;;;20.40;56.20;;;;;;5053416;28;20025;-53
2021/08/23 07:41:55;;;;;;;16.00;9.48;;;20.40;56.20;;;;;;5053599;28;20032;-53
2021/08/23 07:44:21;;;;;;;16.38;9.30;;;20.40;56.30;;;;;;5053097;28;20029;-53
2021/08/23 07:46:48;;;;;;;16.00;9.48;;;20.40;56.30;;;;;;5053589;28;20032;-53
2021/08/23 07:49:14;;;;;;;16.70;9.38;;;20.30;56.30;;;;;;5040811;28;20108;-53
2021/08/23 07:51:41;;;;;;;16.65;9.25;;;20.30;56.40;;;;;;5045417;28;20023;-53
2021/08/23 07:54:08;;;;;;;16.80;9.30;;;20.30;56.40;;;;;;5053681;28;20103;-53
2021/08/23 07:56:35;;;;;;;19.15;9.93;;;20.30;56.40;;;;;;5053387;28;20472;-52
2021/08/23 07:59:02;;;;;;;15.40;9.80;;;20.20;56.40;;;;;;5053597;28;20111;-52
2021/08/23 08:01:28;;;;;;;16.90;10.75;;;20.20;56.50;;;;;;5053161;28;20120;-54
2021/08/23 08:03:55;;;;;;;15.98;9.82;;;20.20;56.40;;;;;;5053672;28;20116;-53
2021/08/23 08:06:21;;;;;;;15.70;9.63;;;20.20;56.50;;;;;;5053053;28;20392;-52
2021/08/23 08:08:48;;;;;;;18.77;10.02;;;20.20;56.50;;;;;;5053358;28;20025;-54
2021/08/23 08:11:14;;;;;;;19.58;10.88;;;20.10;56.50;;;;;;5053164;28;20017;-53
2021/08/23 08:13:42;;;;;;;14.43;9.75;;;20.10;56.60;;;;;;5053488;28;20024;-54
2021/08/23 08:16:08;;;;;;;19.58;10.23;;;20.10;56.60;;;;;;5052865;28;20065;-53
2021/08/23 08:18:35;;;;;;;16.27;9.88;;;20.00;56.60;;;;;;5052598;28;20095;-53
2021/08/23 08:21:01;;;;;;;17.70;10.82;;;20.00;56.60;;;;;;5052482;28;20045;-52
2021/08/23 08:23:31;;;;;;;19.80;10.43;;;20.00;56.70;;;;;;5052875;28;20057;-52
2021/08/23 08:25:58;;;;;;;17.40;9.77;;;20.00;56.70;;;;;;5053347;28;20112;-53
2021/08/23 08:28:24;;;;;;;17.27;9.48;;;20.00;56.70;;;;;;5053033;28;20433;-53
2021/08/23 08:30:51;;;;;;;15.63;9.63;;;19.90;56.60;;;;;;5052841;28;20032;-52
2021/08/23 08:33:17;;;;;;;16.52;9.73;;;19.90;56.70;;;;;;5052734;28;20044;-52
2021/08/23 08:35:44;;;;;;;16.20;10.35;;;19.90;56.70;;;;;;5053242;28;20067;-53
2021/08/23 08:38:10;;;;;;;17.02;10.10;;;19.90;56.70;;;;;;5052346;28;20053;-53
2021/08/23 08:40:37;;;;;;;16.38;10.52;;;19.90;56.80;;;;;;5052951;28;20433;-53
2021/08/23 08:43:04;;;;;;;20.63;10.85;;;19.90;56.80;;;;;;5052498;28;20053;-53
2021/08/23 08:45:31;;;;;;;15.40;9.43;;;19.90;56.80;;;;;;5053086;28;20037;-53
2021/08/23 08:48:02;;;;;;;17.52;10.73;;;19.80;56.80;;;;;;5053218;28;20127;-53
2021/08/23 08:50:30;;;;;;;17.08;9.98;;;19.80;56.80;;;;;;5053025;28;20044;-54
2021/08/23 08:52:57;;;;;;;17.92;10.23;;;19.80;56.90;;;;;;5053848;28;20021;-53
2021/08/23 08:55:24;;;;;;;17.67;9.68;;;19.80;57.00;;;;;;5056975;28;20021;-53
2021/08/23 08:57:50;;;;;;;16.90;10.40;;;19.70;57.00;;;;;;5056829;28;20456;-52
2021/08/23 09:00:17;;;;;;;17.73;9.95;;;19.70;57.00;;;;;;5056767;28;20025;-54
2021/08/23 09:02:59;;;;;;;19.73;10.52;;;19.70;57.10;;;;;;5056465;28;20040;-54
2021/08/23 09:05:33;;;;;;;;;;;19.70;57.10;;;;;;5039442;28;20155;-53
2021/08/23 09:08:02;;;;;;;17.38;9.95;;;19.70;57.10;;;;;;5057338;28;19905;-52
2021/08/23 09:10:29;;;;;;;16.55;10.07;;;19.60;57.10;;;;;;5056901;28;20027;-54
2021/08/23 09:13:11;;;;;;;17.58;11.13;;;19.60;57.10;;;;;;5056076;28;20488;-53
2021/08/23 09:15:51;;;;;;;15.50;9.15;;;19.60;57.20;;;;;;5055763;28;20045;-53
2021/08/23 09:18:22;;;;;;;18.02;9.27;;;19.50;57.20;;;;;;5055734;28;20453;-53
2021/08/23 09:21:06;;;;;;;17.83;9.57;;;19.50;57.20;;;;;;5055937;28;20029;-53
2021/08/23 09:23:40;;;;;;;14.52;9.70;;;19.50;57.30;;;;;;5056360;28;20033;-53
2021/08/23 09:26:08;;;;;;;16.67;9.93;;;19.50;57.30;;;;;;5055400;28;20110;-52
2021/08/23 09:28:34;;;;;;;18.98;10.77;;;19.50;57.40;;;;;;5056585;28;20152;-54
2021/08/23 09:31:01;;;;;;;16.00;9.25;;;19.40;57.40;;;;;;5056372;28;20032;-54
2021/08/23 09:33:27;;;;;;;16.27;9.57;;;19.40;57.40;;;;;;5055412;28;20108;-53
2021/08/23 09:35:54;;;;;;;17.65;10.35;;;19.40;57.40;;;;;;5056292;28;20453;-54
2021/08/23 09:38:21;;;;;;;16.95;10.18;;;19.40;57.50;;;;;;5056114;28;20024;-53
2021/08/23 09:40:50;;;;;;;17.08;10.18;;;19.40;57.60;;;;;;5056167;28;20029;-53
2021/08/23 09:43:16;;;;;;;15.23;10.30;;;19.30;57.60;;;;;;5055952;28;20025;-53
2021/08/23 09:45:50;;;;;;;14.77;9.55;;;19.40;57.70;;;;;;5055962;28;20025;-52
2021/08/23 09:48:18;;;;;;;16.08;10.38;;;19.30;57.70;;;;;;5053033;28;20021;-54
2021/08/23 09:50:45;;;;;;;17.40;9.85;;;19.30;57.70;;;;;;5041049;28;20479;-54
2021/08/23 09:53:19;;;;;;;18.13;10.13;;;19.30;57.70;;;;;;5055911;28;20464;-53
2021/08/23 09:55:51;;;;;;;19.20;9.30;;;19.30;57.80;;;;;;5055948;28;20538;-53
2021/08/23 09:58:18;;;;;;;20.20;10.45;;;19.20;57.80;;;;;;5056692;28;20025;-54
2021/08/23 10:00:45;;;;;;;18.05;10.48;;;19.20;57.80;;;;;;5054925;28;20531;-53
2021/08/23 10:03:25;;;;;;;15.80;9.88;;;19.20;57.80;;;;;;5055363;28;20033;-53
2021/08/23 10:05:54;;;;;;;15.90;9.20;;;19.20;57.90;;;;;;5055688;28;20100;-52
2021/08/23 10:08:24;;;;;;;14.27;9.82;;;19.10;57.80;;;;;;5055888;28;20024;-53
2021/08/23 10:10:51;;;;;;;17.60;9.98;;;19.20;57.90;;;;;;5055521;28;20021;-53
2021/08/23 10:13:18;;;;;;;15.68;9.45;;;19.10;57.90;;;;;;5054986;28;20029;-54
2021/08/23 10:15:45;;;;;;;15.90;9.90;;;19.10;57.90;;;;;;5055196;28;20094;-54
2021/08/23 10:18:12;;;;;;;15.95;9.52;;;19.10;57.90;;;;;;5054734;28;20028;-53
2021/08/23 10:20:39;;;;;;;17.35;9.50;;;19.10;58.00;;;;;;5054931;28;20100;-52
2021/08/23 10:23:06;;;;;;;16.48;8.88;;;19.00;57.90;;;;;;5054903;28;20033;-52
2021/08/23 10:25:34;;;;;;;20.40;9.70;;;19.00;58.00;;;;;;5053979;28;20473;-52
2021/08/23 10:28:06;;;;;;;15.35;9.02;;;19.00;58.00;;;;;;5055186;28;20082;-54
2021/08/23 10:30:33;;;;;;;14.35;9.20;;;19.00;58.00;;;;;;5054950;28;20180;-53
2021/08/23 10:33:16;;;;;;;18.67;9.05;;;19.00;58.00;;;;;;5054798;28;20032;-52
2021/08/23 10:35:56;;;;;;;15.23;8.93;;;18.90;58.70;;;;;;5054897;28;20025;-53
2021/08/23 10:38:25;;;;;;;17.42;9.05;;;19.00;58.10;;;;;;5055146;28;20033;-53
2021/08/23 10:41:13;;;;;;;12.25;8.55;;;18.90;58.10;;;;;;5054506;28;20127;-53
2021/08/23 10:43:44;;;;;;;15.73;8.88;;;18.90;58.00;;;;;;5054704;28;20462;-53
2021/08/23 10:46:27;;;;;;;15.65;8.88;;;18.90;58.10;;;;;;5055168;28;20021;-54
2021/08/23 10:48:55;;;;;;;13.90;8.68;;;18.90;58.10;;;;;;5043122;28;20025;-53
2021/08/23 10:51:33;;;;;;;16.70;8.80;;;18.80;58.10;;;;;;5054894;28;20029;-53
2021/08/23 10:54:01;;;;;;;15.10;9.15;;;18.80;58.10;;;;;;5054626;28;20032;-53
2021/08/23 10:56:39;;;;;;;15.48;9.52;;;18.80;58.10;;;;;;5054396;28;20020;-53
2021/08/23 10:59:14;;;;;;;13.90;8.77;;;18.70;58.10;;;;;;5055248;28;20083;-54
2021/08/23 11:01:52;;;;;;;17.80;8.90;;;18.80;58.20;;;;;;5053358;28;20036;-52
2021/08/23 11:04:31;;;;;;;15.10;9.07;;;18.80;58.20;;;;;;5034958;28;20515;-53
2021/08/23 11:06:58;;;;;;;14.60;9.60;;;18.70;58.20;;;;;;5034856;28;20151;-53
2021/08/23 11:10:00;;;;;;;14.90;9.30;;;18.70;58.20;;;;;;5035453;28;20029;-53
2021/08/23 11:12:26;;;;;;;13.85;8.60;;;18.70;58.30;;;;;;5053808;28;20024;-53
2021/08/23 11:14:54;;;;;;;17.63;9.15;;;18.60;58.20;;;;;;5054440;28;20033;-53
2021/08/23 11:17:32;;;;;;;16.88;9.80;;;18.60;58.30;;;;;;5053176;28;20045;-53
2021/08/23 11:20:03;;;;;;;13.18;8.32;;;18.60;58.30;;;;;;5054364;28;20174;-53
2021/08/23 11:22:30;;;;;;;15.32;9.05;;;18.60;58.30;;;;;;5054680;28;20028;-53
2021/08/23 11:24:56;;;;;;;17.15;9.52;;;18.60;58.40;;;;;;5054415;28;20095;-54
2021/08/23 11:27:23;;;;;;;15.60;8.80;;;18.50;58.40;;;;;;5054041;28;20364;-52
2021/08/23 11:29:52;;;;;;;12.95;8.70;;;18.60;58.50;;;;;;5053793;28;20021;-53
2021/08/23 11:32:24;;;;;;;12.32;8.70;;;18.50;58.50;;;;;;5053438;28;20036;-53
2021/08/23 11:34:51;;;;;;;;;;;18.50;58.50;;;;;;5054962;28;20025;-53
2021/08/23 11:37:22;;;;;;;14.45;7.97;;;18.50;58.50;;;;;;5054370;28;19967;-52
2021/08/23 11:39:49;;;;;;;14.90;8.65;;;18.50;58.50;;;;;;5054077;28;20453;-53
2021/08/23 11:42:23;;;;;;;13.88;8.70;;;18.50;58.60;;;;;;5053277;28;20397;-52
2021/08/23 11:44:53;;;;;;;16.73;8.75;;;18.40;58.50;;;;;;5054085;28;20408;-52
2021/08/23 11:47:30;;;;;;;14.80;8.75;;;18.40;58.60;;;;;;5053134;28;20100;-52
2021/08/23 11:49:56;;;;;;;13.38;7.85;;;18.40;59.30;;;;;;5049229;28;20024;-53
2021/08/23 11:52:23;;;;;;;14.60;8.60;;;18.40;58.70;;;;;;5052842;28;20023;-52
2021/08/23 11:54:54;;;;;;;15.90;8.65;;;18.40;58.70;;;;;;5053381;28;20485;-53
2021/08/23 11:57:23;;;;;;;15.60;8.00;;;18.40;58.80;;;;;;5054199;28;20108;-52
2021/08/23 12:00:00;;;;;;;18.30;9.75;;;18.30;58.70;;;;;;5052198;28;20032;-52
2021/08/23 12:02:32;;;;;;;16.30;8.95;;;18.30;58.80;;;;;;5053299;28;20100;-53
2021/08/23 12:05:09;;;;;;;13.52;8.15;;;18.30;58.80;;;;;;5053482;28;20067;-53
2021/08/23 12:07:47;;;;;;;15.38;8.60;;;18.30;58.80;;;;;;5053463;28;20111;-53
2021/08/23 12:10:49;;;;;;;11.75;8.13;;;18.20;58.80;;;;;;5053014;28;20116;-54
2021/08/23 12:13:17;;;;;;;13.45;8.85;;;18.20;58.80;;;;;;5037368;28;20124;-53
2021/08/23 12:15:59;;;;;;;14.32;8.07;;;18.20;58.80;;;;;;5052785;28;20049;-52
2021/08/23 12:18:31;;;;;;;10.87;7.70;;;18.20;58.90;;;;;;5051598;28;20020;-52
2021/08/23 12:21:15;;;;;;;13.18;8.00;;;18.20;58.90;;;;;;5053594;28;20024;-53
2021/08/23 12:23:50;;;;;;;15.45;8.45;;;18.20;58.90;;;;;;5053244;28;20033;-53
2021/08/23 12:26:33;;;;;;;14.95;7.80;;;18.20;59.00;;;;;;5053389;28;20045;-52
2021/08/23 12:29:04;;;;;;;;;;;18.10;58.90;;;;;;5057042;28;20024;-53
2021/08/23 12:31:32;;;;;;;13.88;7.97;;;18.10;58.90;;;;;;5057374;28;20443;-54
2021/08/23 12:34:09;;;;;;;15.18;8.18;;;18.10;58.90;;;;;;5056897;28;20028;-53
2021/08/23 12:36:35;;;;;;;13.77;7.90;;;18.10;58.90;;;;;;5057654;28;20024;-52
2021/08/23 12:39:03;;;;;;;12.45;8.20;;;18.00;58.90;;;;;;5057351;28;20025;-52
2021/08/23 12:41:30;;;;;;;14.43;7.93;;;18.10;59.00;;;;;;5056605;28;20587;-52